This is the latest recevied weather packets stored in our database for station/object PY2KO-13. If no packets are shown the sender has not sent any weather packets the latest 10 day(s).
| Time | Temp. | Humidity | Pressure | Rain* | Wind** | Luminosity | Snow |
|---|---|---|---|---|---|---|---|
| 1777389305 | 27.22° C | 62% | 1017.7 hPa | - | - | - | - |
| 1777387505 | 27.22° C | 63% | 1017.9 hPa | - | - | - | - |
| 1777385705 | 27.22° C | 64% | 1018.5 hPa | - | - | - | - |
| 1777383905 | 26.67° C | 65% | 1018.8 hPa | - | - | - | - |
| 1777382105 | 25° C | 72% | 1019.1 hPa | - | - | - | - |
| 1777380305 | 24.44° C | 75% | 1019.1 hPa | - | - | - | - |
| 1777378505 | 24.44° C | 76% | 1019.3 hPa | - | - | - | - |
| 1777376705 | 23.33° C | 79% | 1019 hPa | - | - | - | - |
| 1777374905 | 23.89° C | 79% | 1018.9 hPa | - | - | - | - |
| 1777373105 | 23.33° C | 81% | 1018.8 hPa | - | - | - | - |
| 1777371305 | 22.78° C | 86% | 1018.3 hPa | - | - | - | - |
| 1777369505 | 22.22° C | 86% | 1018.1 hPa | - | - | - | - |
| 1777367705 | 22.22° C | 87% | 1017.7 hPa | - | - | - | - |
| 1777365905 | 22.22° C | 87% | 1017.2 hPa | - | - | - | - |
| 1777364105 | 22.22° C | 87% | 1017 hPa | - | - | - | - |
| 1777362305 | 22.78° C | 84% | 1017.1 hPa | - | - | - | - |
| 1777360505 | 22.78° C | 84% | 1017 hPa | - | - | - | - |
| 1777358705 | 22.22° C | 86% | 1016.6 hPa | - | - | - | - |
| 1777356904 | 22.78° C | 84% | 1016.5 hPa | - | - | - | - |
| 1777355104 | 22.22° C | 82% | 1016.8 hPa | - | - | - | - |
| 1777353305 | 22.78° C | 78% | 1017.2 hPa | - | - | - | - |
| 1777351505 | 22.22° C | 80% | 1017.2 hPa | - | - | - | - |
| 1777349704 | 22.22° C | 85% | 1017 hPa | - | - | - | - |
| 1777347904 | 22.78° C | 86% | 1017 hPa | - | - | - | - |
| 1777346105 | 23.33° C | 83% | 1017.7 hPa | - | - | - | - |
* Rain since midnight (hover to see other rain measurements)
** Current wind speed in m/s (hover to see current wind gust speed)